Time;durP1;ratioP1;P1;durP2;ratioP2;P2;SDS_P1;SDS_P2;PMS_P1;PMS_P2;Temp;Humidity;BMP_temperature;BMP_pressure;BME280_temperature;BME280_humidity;BME280_pressure;Samples;Min_cycle;Max_cycle;Signal;HPM_P1;HPM_P2
2023/12/30 00:00:49;;;;;;;0.20;0.20;;;;;;;6.99;100.00;100806.47;5112587;28;20027;-59
2023/12/30 00:03:15;;;;;;;0.25;0.25;;;;;;;6.98;100.00;100809.84;5112927;28;20023;-59
2023/12/30 00:05:40;;;;;;;0.30;0.30;;;;;;;6.96;100.00;100808.91;5113143;28;20099;-59
2023/12/30 00:08:05;;;;;;;0.25;0.25;;;;;;;6.88;100.00;100811.16;5112504;28;20459;-59
2023/12/30 00:10:31;;;;;;;0.30;0.30;;;;;;;6.88;100.00;100806.03;5112375;28;20037;-59
2023/12/30 00:12:56;;;;;;;0.20;0.20;;;;;;;6.89;100.00;100812.91;5113304;28;20024;-59
2023/12/30 00:15:21;;;;;;;0.30;0.30;;;;;;;6.86;100.00;100817.00;5112034;28;20030;-59
2023/12/30 00:17:47;;;;;;;0.25;0.25;;;;;;;6.87;100.00;100823.91;5113157;28;20460;-58
2023/12/30 00:20:12;;;;;;;0.20;0.20;;;;;;;6.81;100.00;100823.63;5112725;28;20064;-59
2023/12/30 00:22:37;;;;;;;0.30;0.30;;;;;;;6.85;100.00;100828.94;5112267;28;20019;-59
2023/12/30 00:25:04;;;;;;;0.20;0.20;;;;;;;6.86;100.00;100842.63;5113215;28;20528;-59
2023/12/30 00:27:29;;;;;;;0.30;0.30;;;;;;;6.80;100.00;100853.47;5112893;28;20035;-59
2023/12/30 00:29:54;;;;;;;0.30;0.30;;;;;;;6.75;100.00;100849.81;5112448;28;20028;-58
2023/12/30 00:32:20;;;;;;;0.40;0.40;;;;;;;6.75;100.00;100849.81;5112645;28;20387;-58
2023/12/30 00:34:45;;;;;;;0.30;0.30;;;;;;;6.71;100.00;100859.06;5112888;28;20028;-58
2023/12/30 00:37:13;;;;;;;0.30;0.30;;;;;;;6.65;100.00;100857.88;5112175;28;20130;-59
2023/12/30 00:39:40;;;;;;;0.40;0.40;;;;;;;6.64;100.00;100858.72;5112847;28;20035;-59
2023/12/30 00:42:06;;;;;;;0.30;0.30;;;;;;;6.55;100.00;100862.59;5113010;28;20051;-59
2023/12/30 00:44:31;;;;;;;0.30;0.30;;;;;;;6.49;100.00;100866.56;5111925;28;20446;-59
2023/12/30 00:46:56;;;;;;;0.32;0.32;;;;;;;6.47;100.00;100869.06;5112710;28;20077;-59
2023/12/30 00:49:21;;;;;;;0.30;0.30;;;;;;;6.46;100.00;100864.72;5112202;28;20052;-58
2023/12/30 00:51:47;;;;;;;0.30;0.30;;;;;;;6.47;100.00;100863.03;5111994;28;20020;-59
2023/12/30 00:54:12;;;;;;;0.30;0.30;;;;;;;6.48;100.00;100865.69;5112103;28;20024;-58
2023/12/30 00:56:37;;;;;;;0.30;0.30;;;;;;;6.49;100.00;100864.88;5112816;28;20019;-59
2023/12/30 00:59:02;;;;;;;0.20;0.20;;;;;;;6.47;100.00;100868.16;5112338;28;20024;-58
2023/12/30 01:01:28;;;;;;;0.30;0.30;;;;;;;6.49;100.00;100875.09;5112512;28;20378;-59
2023/12/30 01:03:53;;;;;;;0.30;0.30;;;;;;;6.47;100.00;100879.28;5112516;28;20035;-58
2023/12/30 01:06:18;;;;;;;0.30;0.30;;;;;;;6.51;100.00;100882.88;5111841;28;20401;-59
2023/12/30 01:08:43;;;;;;;0.40;0.40;;;;;;;6.47;100.00;100884.41;5112996;28;20035;-59
2023/12/30 01:11:11;;;;;;;0.30;0.30;;;;;;;6.50;100.00;100883.69;5101924;28;20387;-59
2023/12/30 01:13:36;;;;;;;0.30;0.30;;;;;;;6.50;100.00;100887.09;5092522;28;20043;-59
2023/12/30 01:16:05;;;;;;;0.30;0.30;;;;;;;6.51;100.00;100886.31;5092190;28;20028;-59
2023/12/30 01:18:31;;;;;;;0.30;0.30;;;;;;;6.49;100.00;100887.91;5091120;28;20471;-59
2023/12/30 01:20:56;;;;;;;0.20;0.20;;;;;;;6.52;100.00;100892.28;5092109;28;20039;-59
2023/12/30 01:23:21;;;;;;;0.30;0.30;;;;;;;6.48;100.00;100891.31;5095209;28;20024;-58
2023/12/30 01:25:47;;;;;;;0.30;0.30;;;;;;;6.46;100.00;100895.47;5095137;28;20020;-58
2023/12/30 01:28:12;;;;;;;0.30;0.30;;;;;;;6.42;100.00;100891.88;5095518;28;20028;-59
2023/12/30 01:30:37;;;;;;;0.30;0.30;;;;;;;6.42;100.00;100901.25;5096033;28;20028;-59
2023/12/30 01:33:04;;;;;;;0.22;0.22;;;;;;;6.50;100.00;100899.03;5094991;28;20455;-58
2023/12/30 01:35:29;;;;;;;0.32;0.32;;;;;;;6.50;100.00;100909.28;5095335;28;20024;-59
2023/12/30 01:37:54;;;;;;;0.30;0.30;;;;;;;6.50;100.00;100915.28;5095915;28;20031;-59
2023/12/30 01:40:19;;;;;;;0.30;0.30;;;;;;;6.48;100.00;100909.22;5094770;28;20499;-59
2023/12/30 01:42:45;;;;;;;0.30;0.30;;;;;;;6.48;100.00;100914.34;5095492;28;20039;-59
2023/12/30 01:45:10;;;;;;;0.40;0.40;;;;;;;6.50;100.00;100915.28;5095364;28;20031;-59
2023/12/30 01:47:36;;;;;;;0.30;0.30;;;;;;;6.45;100.00;100900.50;5094584;28;20081;-59
2023/12/30 01:50:04;;;;;;;0.30;0.30;;;;;;;6.40;100.00;100907.97;5095424;28;20061;-59
2023/12/30 01:52:30;;;;;;;0.30;0.30;;;;;;;6.41;100.00;100907.16;5095232;28;20020;-58
2023/12/30 01:54:56;;;;;;;0.38;0.38;;;;;;;6.38;100.00;100909.59;5094656;28;20020;-58
2023/12/30 01:57:21;;;;;;;0.35;0.35;;;;;;;6.38;100.00;100912.16;5094866;28;20030;-58
2023/12/30 01:59:48;;;;;;;0.30;0.30;;;;;;;6.47;100.00;100929.59;5094878;28;20491;-58
2023/12/30 02:02:13;;;;;;;0.40;0.40;;;;;;;6.48;100.00;100923.69;5094728;28;20020;-58
2023/12/30 02:04:38;;;;;;;0.30;0.30;;;;;;;6.46;100.00;100928.75;5095091;28;20031;-58
2023/12/30 02:07:04;;;;;;;0.30;0.30;;;;;;;6.52;100.00;100934.16;5094983;28;20035;-58
2023/12/30 02:09:29;;;;;;;0.35;0.35;;;;;;;6.48;100.00;100926.25;5094324;28;20024;-59
2023/12/30 02:11:55;;;;;;;0.30;0.30;;;;;;;6.48;100.00;100937.38;5094971;28;20047;-58
2023/12/30 02:14:25;;;;;;;0.30;0.30;;;;;;;6.48;100.00;100934.81;5093848;28;20024;-58
2023/12/30 02:16:50;;;;;;;0.30;0.30;;;;;;;6.51;100.00;100934.09;5094769;28;20031;-58
2023/12/30 02:19:16;;;;;;;0.30;0.30;;;;;;;6.43;100.00;100939.72;5094371;28;20110;-58
2023/12/30 02:21:41;;;;;;;0.30;0.30;;;;;;;6.38;100.00;100942.88;5094194;28;20028;-59
2023/12/30 02:24:06;;;;;;;0.32;0.32;;;;;;;6.37;100.00;100941.09;5094606;28;20073;-58
2023/12/30 02:26:32;;;;;;;0.38;0.38;;;;;;;6.31;100.00;100943.38;5094548;28;20506;-58
2023/12/30 02:28:57;;;;;;;0.30;0.30;;;;;;;6.28;100.00;100948.34;5093900;28;20384;-58
2023/12/30 02:31:22;;;;;;;0.35;0.35;;;;;;;6.31;100.00;100941.66;5094467;28;20024;-58
2023/12/30 02:33:48;;;;;;;0.30;0.30;;;;;;;6.37;100.00;100948.78;5093669;28;20392;-58
2023/12/30 02:36:13;;;;;;;0.38;0.38;;;;;;;6.41;100.00;100950.69;5093434;28;20043;-58
2023/12/30 02:38:39;;;;;;;0.30;0.30;;;;;;;6.38;100.00;100953.13;5094478;28;20035;-58
2023/12/30 02:41:04;;;;;;;0.38;0.38;;;;;;;6.37;100.00;100951.34;5094647;28;20032;-58
2023/12/30 02:43:36;;;;;;;0.20;0.20;;;;;;;6.41;100.00;100950.69;5093398;28;20096;-58
2023/12/30 02:46:02;;;;;;;0.40;0.40;;;;;;;6.42;100.00;100952.44;5094541;28;20032;-58
2023/12/30 02:48:27;;;;;;;0.30;0.30;;;;;;;6.42;100.00;100953.31;5093770;28;20040;-58
2023/12/30 02:50:52;;;;;;;0.30;0.30;;;;;;;6.44;100.00;100955.94;5093672;28;20472;-58
2023/12/30 02:53:18;;;;;;;0.32;0.32;;;;;;;6.42;100.00;100957.56;5094078;28;20020;-58
2023/12/30 02:55:43;;;;;;;0.30;0.30;;;;;;;6.40;100.00;100965.19;5094066;28;20027;-58
2023/12/30 02:58:08;;;;;;;0.30;0.30;;;;;;;6.39;100.00;100959.97;5093539;28;20361;-58
2023/12/30 03:00:33;;;;;;;0.30;0.30;;;;;;;6.43;100.00;100965.31;5093891;28;20038;-58
2023/12/30 03:02:59;;;;;;;0.30;0.30;;;;;;;6.44;100.00;100968.75;5093644;28;20067;-58
2023/12/30 03:05:27;;;;;;;0.30;0.30;;;;;;;6.43;100.00;100964.44;5093393;28;20020;-59
2023/12/30 03:07:53;;;;;;;0.30;0.30;;;;;;;6.42;100.00;100966.13;5093858;28;20498;-58
2023/12/30 03:10:18;;;;;;;0.30;0.30;;;;;;;6.43;100.00;100964.44;5093513;28;20056;-59
2023/12/30 03:12:43;;;;;;;0.30;0.30;;;;;;;6.39;100.00;100970.19;5093288;28;20111;-58
2023/12/30 03:15:09;;;;;;;0.30;0.30;;;;;;;6.37;100.00;100971.81;5093814;28;20060;-58
2023/12/30 03:17:34;;;;;;;0.20;0.20;;;;;;;6.34;100.00;100974.22;5093615;28;20501;-58
2023/12/30 03:20:01;;;;;;;0.40;0.40;;;;;;;6.30;100.00;100967.19;5093333;28;20032;-58
2023/12/30 03:22:29;;;;;;;0.35;0.35;;;;;;;6.28;100.00;100979.94;5093302;28;20468;-58
2023/12/30 03:24:54;;;;;;;0.30;0.30;;;;;;;6.26;100.00;100971.28;5092684;28;20487;-58
2023/12/30 03:27:20;;;;;;;0.30;0.30;;;;;;;6.19;100.00;100979.47;5093266;28;20032;-59
2023/12/30 03:29:45;;;;;;;0.30;0.30;;;;;;;6.18;100.00;100972.59;5093373;28;20032;-58
2023/12/30 03:32:10;;;;;;;0.40;0.40;;;;;;;6.17;100.00;100979.41;5092089;28;20540;-58
2023/12/30 03:34:35;;;;;;;0.20;0.20;;;;;;;6.12;100.00;100978.31;5093625;28;20024;-58
2023/12/30 03:37:01;;;;;;;0.30;0.30;;;;;;;6.12;100.00;100972.28;5093360;28;20099;-58
2023/12/30 03:39:26;;;;;;;0.32;0.32;;;;;;;6.10;100.00;100979.91;5092316;28;20021;-58
2023/12/30 03:41:51;;;;;;;0.20;0.20;;;;;;;6.10;100.00;100974.78;5093349;28;20460;-58
2023/12/30 03:44:17;;;;;;;0.30;0.30;;;;;;;6.08;100.00;100976.38;5092986;28;20027;-58
2023/12/30 03:46:42;;;;;;;0.30;0.30;;;;;;;6.06;100.00;100975.44;5091465;28;20051;-58
2023/12/30 03:49:08;;;;;;;0.30;0.30;;;;;;;6.06;100.00;100983.97;5092951;28;20051;-58
2023/12/30 03:51:33;;;;;;;0.40;0.40;;;;;;;6.06;100.00;100978.00;5093064;28;20035;-58
2023/12/30 03:53:58;;;;;;;0.30;0.30;;;;;;;6.05;100.00;100981.34;5092520;28;20468;-58
2023/12/30 03:56:24;;;;;;;0.30;0.30;;;;;;;6.04;100.00;100982.13;5092962;28;20028;-58
2023/12/30 03:58:49;;;;;;;0.30;0.30;;;;;;;6.05;100.00;100991.59;5093173;28;20357;-59
2023/12/30 04:01:14;;;;;;;0.40;0.40;;;;;;;6.00;100.00;100985.34;5092128;28;20035;-58
2023/12/30 04:03:40;;;;;;;0.30;0.30;;;;;;;5.98;100.00;100979.22;5093460;28;20422;-58
2023/12/30 04:06:05;;;;;;;0.40;0.40;;;;;;;5.97;100.00;100982.63;5092846;28;20048;-58
2023/12/30 04:08:30;;;;;;;0.40;0.40;;;;;;;5.93;100.00;100986.69;5092099;28;20024;-58
2023/12/30 04:10:55;;;;;;;0.30;0.30;;;;;;;5.93;100.00;100990.13;5092839;28;20028;-59
2023/12/30 04:13:21;;;;;;;0.30;0.30;;;;;;;5.91;100.00;100991.75;5092478;28;20107;-58
2023/12/30 04:15:46;;;;;;;0.38;0.38;;;;;;;5.90;100.00;100984.88;5092116;28;20433;-59
2023/12/30 04:18:11;;;;;;;0.20;0.20;;;;;;;5.91;100.00;100990.84;5092434;28;20039;-58
2023/12/30 04:20:37;;;;;;;0.30;0.30;;;;;;;5.92;100.00;100987.50;5092323;28;20077;-58
2023/12/30 04:23:02;;;;;;;0.30;0.30;;;;;;;5.89;100.00;100989.91;5092218;28;20050;-58
2023/12/30 04:25:27;;;;;;;0.40;0.40;;;;;;;5.85;100.00;100982.84;5092390;28;20028;-58
2023/12/30 04:27:53;;;;;;;0.40;0.40;;;;;;;5.83;100.00;100985.34;5092392;28;20157;-58
2023/12/30 04:30:18;;;;;;;0.40;0.40;;;;;;;5.82;100.00;100983.56;5091748;28;20042;-58
2023/12/30 04:32:43;;;;;;;0.30;0.30;;;;;;;5.76;100.00;100984.16;5092562;28;20020;-58
2023/12/30 04:35:09;;;;;;;0.30;0.30;;;;;;;5.71;100.00;100984.72;5092015;28;20031;-58
2023/12/30 04:37:34;;;;;;;0.30;0.30;;;;;;;5.70;100.00;100985.53;5092635;28;20070;-58
2023/12/30 04:39:59;;;;;;;0.30;0.30;;;;;;;5.66;100.00;100986.16;5092437;28;20193;-58
2023/12/30 04:42:24;;;;;;;0.30;0.30;;;;;;;5.66;100.00;100991.28;5091428;28;20028;-58
2023/12/30 04:44:50;;;;;;;0.40;0.40;;;;;;;5.62;100.00;100992.78;5092415;28;20124;-58
2023/12/30 04:47:15;;;;;;;0.40;0.40;;;;;;;5.56;100.00;100998.44;5092346;28;20031;-58
2023/12/30 04:49:40;;;;;;;0.38;0.38;;;;;;;5.55;100.00;100999.28;5091593;28;20122;-58
2023/12/30 04:52:06;;;;;;;0.30;0.30;;;;;;;5.56;100.00;100995.91;5092432;28;20028;-58
2023/12/30 04:54:31;;;;;;;0.30;0.30;;;;;;;5.56;100.00;101000.16;5092029;28;20024;-58
2023/12/30 04:56:56;;;;;;;0.40;0.40;;;;;;;5.53;100.00;101002.56;5092862;28;20464;-58
2023/12/30 04:59:22;;;;;;;0.30;0.30;;;;;;;5.54;100.00;101012.84;5096073;28;20059;-58
2023/12/30 05:01:47;;;;;;;0.30;0.30;;;;;;;5.55;100.00;101019.72;5096338;28;20487;-58
2023/12/30 05:04:12;;;;;;;0.30;0.30;;;;;;;5.57;100.00;101023.22;5095150;28;20070;-58
2023/12/30 05:06:38;;;;;;;0.30;0.30;;;;;;;5.56;100.00;101018.91;5096147;28;20088;-58
2023/12/30 05:09:04;;;;;;;0.30;0.30;;;;;;;5.58;100.00;101019.88;5096016;28;20031;-58
2023/12/30 05:11:29;;;;;;;0.30;0.30;;;;;;;5.57;100.00;101019.81;5095342;28;20039;-58
2023/12/30 05:13:54;;;;;;;0.30;0.30;;;;;;;5.55;100.00;101024.84;5095982;28;20024;-58
2023/12/30 05:16:20;;;;;;;0.30;0.30;;;;;;;5.53;100.00;101034.09;5094926;28;20028;-57
2023/12/30 05:18:45;;;;;;;0.30;0.30;;;;;;;5.52;100.00;101034.88;5095568;28;20369;-58
2023/12/30 05:21:17;;;;;;;0.30;0.30;;;;;;;5.53;100.00;101030.69;5095542;28;20106;-58
2023/12/30 05:23:43;;;;;;;0.30;0.30;;;;;;;5.52;100.00;101029.78;5095669;28;20098;-59
2023/12/30 05:26:12;;;;;;;0.32;0.32;;;;;;;5.51;100.00;101035.69;5095333;28;20024;-58
2023/12/30 05:28:37;;;;;;;0.40;0.40;;;;;;;5.52;100.00;101029.78;5095822;28;20119;-58
2023/12/30 05:31:03;;;;;;;0.40;0.40;;;;;;;5.51;100.00;101028.00;5095420;28;20434;-58
2023/12/30 05:33:28;;;;;;;0.30;0.30;;;;;;;5.53;100.00;101031.53;5095052;28;20023;-58
2023/12/30 05:35:53;;;;;;;0.30;0.30;;;;;;;5.53;100.00;101031.53;5095865;28;20349;-58
2023/12/30 05:38:19;;;;;;;0.30;0.30;;;;;;;5.50;100.00;101035.59;5094604;28;20027;-58
2023/12/30 05:40:44;;;;;;;0.30;0.30;;;;;;;5.45;100.00;101040.50;5095425;28;20024;-58
2023/12/30 05:43:09;;;;;;;0.30;0.30;;;;;;;5.46;100.00;101032.00;5095027;28;20028;-58
2023/12/30 05:45:35;;;;;;;0.40;0.40;;;;;;;5.47;100.00;101051.66;5094453;28;20016;-58
2023/12/30 05:48:02;;;;;;;0.30;0.30;;;;;;;5.47;100.00;101036.31;5095310;28;20127;-57
2023/12/30 05:50:27;;;;;;;0.33;0.33;;;;;;;5.40;100.00;101053.00;5095324;28;20031;-58
2023/12/30 05:52:53;;;;;;;0.40;0.40;;;;;;;5.40;100.00;101047.91;5094422;28;20024;-58
2023/12/30 05:55:18;;;;;;;0.32;0.32;;;;;;;5.34;100.00;101049.25;5095068;28;20024;-58
2023/12/30 05:57:45;;;;;;;0.30;0.30;;;;;;;5.31;100.00;101055.06;5095046;28;20464;-58
2023/12/30 06:00:11;;;;;;;0.30;0.30;;;;;;;5.35;100.00;101048.47;5094108;28;20032;-58
2023/12/30 06:02:36;;;;;;;0.30;0.30;;;;;;;5.33;100.00;101050.91;5095191;28;20027;-58
2023/12/30 06:05:02;;;;;;;0.40;0.40;;;;;;;5.32;100.00;101050.84;5095032;28;20021;-58
2023/12/30 06:07:27;;;;;;;0.35;0.35;;;;;;;5.31;100.00;101054.19;5094035;28;20024;-58
2023/12/30 06:09:52;;;;;;;0.32;0.32;;;;;;;5.31;100.00;101049.06;5093767;28;20111;-58
2023/12/30 06:12:17;;;;;;;0.30;0.30;;;;;;;5.29;100.00;101046.44;5094528;28;20039;-58
2023/12/30 06:14:43;;;;;;;0.30;0.30;;;;;;;5.28;100.00;101058.34;5094309;28;20111;-58
2023/12/30 06:17:08;;;;;;;0.30;0.30;;;;;;;5.32;100.00;101061.06;5095063;28;20024;-58
2023/12/30 06:19:34;;;;;;;0.40;0.40;;;;;;;5.27;100.00;101059.13;5094401;28;20020;-58
2023/12/30 06:21:59;;;;;;;0.30;0.30;;;;;;;5.26;100.00;101052.25;5094370;28;20457;-58
2023/12/30 06:24:26;;;;;;;0.30;0.30;;;;;;;5.26;100.00;101067.59;5094467;28;20405;-58
2023/12/30 06:26:52;;;;;;;0.30;0.30;;;;;;;5.25;100.00;101063.31;5094424;28;20460;-58
2023/12/30 06:29:18;;;;;;;0.30;0.30;;;;;;;5.23;100.00;101064.00;5093698;28;20027;-58
2023/12/30 06:31:44;;;;;;;0.40;0.40;;;;;;;5.24;100.00;101069.19;5094759;28;20211;-58
2023/12/30 06:34:10;;;;;;;0.30;0.30;;;;;;;5.22;100.00;101073.34;5094194;28;20082;-58
2023/12/30 06:36:36;;;;;;;0.40;0.40;;;;;;;5.26;100.00;101082.91;5094274;28;20024;-58
2023/12/30 06:39:01;;;;;;;0.30;0.30;;;;;;;5.28;100.00;101080.47;5094600;28;20099;-58
2023/12/30 06:41:27;;;;;;;0.40;0.40;;;;;;;5.25;100.00;101076.09;5093745;28;20410;-58
2023/12/30 06:43:52;;;;;;;0.40;0.40;;;;;;;5.24;100.00;101079.41;5093992;28;20023;-57
2023/12/30 06:46:21;;;;;;;0.40;0.40;;;;;;;5.22;100.00;101080.13;5094032;28;20038;-58
2023/12/30 06:48:47;;;;;;;0.40;0.40;;;;;;;5.23;100.00;101076.78;5093143;28;20404;-58
2023/12/30 06:51:12;;;;;;;0.30;0.30;;;;;;;5.23;100.00;101082.78;5093800;28;20462;-58
2023/12/30 06:53:37;;;;;;;0.40;0.40;;;;;;;5.20;100.00;101077.50;5094064;28;20036;-58
2023/12/30 06:56:09;;;;;;;0.30;0.30;;;;;;;5.20;100.00;101080.06;5093200;28;20100;-58
2023/12/30 06:58:35;;;;;;;0.40;0.40;;;;;;;5.19;100.00;101083.41;5094236;28;20032;-58
2023/12/30 07:01:00;;;;;;;0.30;0.30;;;;;;;5.18;100.00;101079.09;5093641;28;20050;-58
2023/12/30 07:03:26;;;;;;;0.40;0.40;;;;;;;5.18;100.00;101081.63;5093003;28;20067;-58
2023/12/30 07:05:51;;;;;;;0.30;0.30;;;;;;;5.18;100.00;101084.19;5093956;28;20498;-58
2023/12/30 07:08:16;;;;;;;0.30;0.30;;;;;;;5.18;100.00;101085.88;5093583;28;20028;-58
2023/12/30 07:10:42;;;;;;;0.40;0.40;;;;;;;5.16;100.00;101078.09;5092994;28;20023;-58
2023/12/30 07:13:08;;;;;;;0.40;0.40;;;;;;;5.15;100.00;101089.16;5093931;28;20032;-59
2023/12/30 07:15:33;;;;;;;0.30;0.30;;;;;;;5.16;100.00;101090.88;5093192;28;20095;-58
2023/12/30 07:17:59;;;;;;;0.30;0.30;;;;;;;5.18;100.00;101080.78;5093000;28;20054;-58
2023/12/30 07:20:26;;;;;;;0.30;0.30;;;;;;;5.17;100.00;101092.66;5092995;28;20028;-58
2023/12/30 07:22:55;;;;;;;0.50;0.50;;;;;;;5.22;100.00;101090.34;5093386;28;20053;-58
2023/12/30 07:25:20;;;;;;;0.30;0.30;;;;;;;5.21;100.00;101092.00;5092688;28;20027;-58
2023/12/30 07:27:46;;;;;;;0.30;0.30;;;;;;;5.23;100.00;101097.22;5093534;28;20020;-58
2023/12/30 07:30:11;;;;;;;0.30;0.30;;;;;;;5.18;100.00;101098.66;5092814;28;20020;-58
2023/12/30 07:32:37;;;;;;;0.40;0.40;;;;;;;5.20;100.00;101097.94;5092858;28;20455;-58
2023/12/30 07:35:07;;;;;;;0.30;0.30;;;;;;;5.18;100.00;101099.53;5093281;28;20042;-58
2023/12/30 07:37:33;;;;;;;0.30;0.30;;;;;;;5.15;100.00;101099.38;5092709;28;20112;-58
2023/12/30 07:40:00;;;;;;;0.40;0.40;;;;;;;5.18;100.00;101096.97;5092503;28;20458;-58
2023/12/30 07:42:25;;;;;;;0.30;0.30;;;;;;;5.23;100.00;101098.09;5092673;28;20352;-58
2023/12/30 07:44:54;;;;;;;0.30;0.30;;;;;;;5.20;100.00;101105.63;5093017;28;20526;-58
2023/12/30 07:47:20;;;;;;;0.40;0.40;;;;;;;5.20;100.00;101107.25;5092927;28;20099;-58
2023/12/30 07:49:46;;;;;;;0.30;0.30;;;;;;;5.20;100.00;101112.38;5092837;28;20135;-58
2023/12/30 07:52:12;;;;;;;0.30;0.30;;;;;;;5.23;100.00;101110.88;5091943;28;20020;-58
2023/12/30 07:54:37;;;;;;;0.20;0.20;;;;;;;5.26;100.00;101115.28;5092929;28;20111;-58
2023/12/30 07:57:03;;;;;;;0.40;0.40;;;;;;;5.26;100.00;101118.69;5093215;28;20035;-58
2023/12/30 07:59:28;;;;;;;0.40;0.40;;;;;;;5.27;100.00;101129.81;5091829;28;20056;-57
2023/12/30 08:01:56;;;;;;;0.32;0.32;;;;;;;5.27;100.00;101133.25;5092647;28;20017;-58
2023/12/30 08:04:22;;;;;;;0.30;0.30;;;;;;;5.25;100.00;101132.31;5092753;28;20373;-58
2023/12/30 08:06:48;;;;;;;0.40;0.40;;;;;;;5.28;100.00;101141.81;5092173;28;20472;-58
2023/12/30 08:09:13;;;;;;;0.40;0.40;;;;;;;5.26;100.00;101141.69;5092760;28;20035;-58
2023/12/30 08:11:39;;;;;;;0.40;0.40;;;;;;;5.30;100.00;101141.88;5094100;28;20460;-58
2023/12/30 08:14:04;;;;;;;0.30;0.30;;;;;;;5.31;100.00;101146.19;5112631;28;20034;-58
2023/12/30 08:16:29;;;;;;;0.40;0.40;;;;;;;5.35;100.00;101143.03;5112865;28;20031;-58
2023/12/30 08:18:55;;;;;;;0.30;0.30;;;;;;;5.36;100.00;101134.53;5112898;28;20030;-58
2023/12/30 08:21:21;;;;;;;0.40;0.40;;;;;;;5.39;100.00;101138.16;5112052;28;20027;-58
2023/12/30 08:23:47;;;;;;;0.30;0.30;;;;;;;5.44;100.00;101138.41;5112880;28;20107;-58
2023/12/30 08:26:12;;;;;;;0.30;0.30;;;;;;;5.48;100.00;101140.34;5112622;28;20098;-58
2023/12/30 08:28:37;;;;;;;0.40;0.40;;;;;;;5.52;100.00;101152.50;5112621;28;20024;-58
2023/12/30 08:31:03;;;;;;;0.40;0.40;;;;;;;5.55;100.00;101152.69;5112779;28;20016;-58
2023/12/30 08:33:28;;;;;;;0.40;0.40;;;;;;;5.59;100.00;101146.94;5115953;28;20032;-57
2023/12/30 08:35:53;;;;;;;0.30;0.30;;;;;;;5.64;100.00;101148.84;5116654;28;20024;-58
2023/12/30 08:38:19;;;;;;;0.40;0.40;;;;;;;5.67;100.00;101143.88;5116689;28;20110;-57
2023/12/30 08:40:44;;;;;;;0.30;0.30;;;;;;;5.72;100.00;101145.00;5116968;28;20400;-58
2023/12/30 08:43:11;;;;;;;0.32;0.32;;;;;;;5.75;100.00;101135.84;5116381;28;20039;-58
2023/12/30 08:45:36;;;;;;;0.40;0.40;;;;;;;5.78;100.00;101135.13;5117013;28;20531;-58
2023/12/30 08:48:02;;;;;;;0.32;0.32;;;;;;;5.82;100.00;101136.19;5116503;28;20118;-58
2023/12/30 08:50:27;;;;;;;0.30;0.30;;;;;;;5.84;100.00;101134.59;5115870;28;20026;-58
2023/12/30 08:52:52;;;;;;;0.35;0.35;;;;;;;5.90;100.00;101143.47;5116462;28;20075;-58
2023/12/30 08:55:18;;;;;;;0.40;0.40;;;;;;;5.91;100.00;101141.78;5115832;28;20019;-58
2023/12/30 08:57:43;;;;;;;0.30;0.30;;;;;;;5.95;100.00;101141.13;5116932;28;20012;-58
2023/12/30 09:00:09;;;;;;;0.30;0.30;;;;;;;5.97;100.00;101151.47;5116698;28;20471;-58
2023/12/30 09:02:46;;;;;;;0.30;0.30;;;;;;;6.00;100.00;101154.22;5115878;28;20118;-58
2023/12/30 09:05:11;;;;;;;0.40;0.40;;;;;;;6.04;100.00;101148.44;5116313;28;20026;-58
2023/12/30 09:07:36;;;;;;;0.40;0.40;;;;;;;6.07;100.00;101157.19;5116202;28;20023;-58
2023/12/30 09:10:02;;;;;;;0.30;0.30;;;;;;;6.11;100.00;101158.22;5116205;28;20054;-58
2023/12/30 09:12:27;;;;;;;0.40;0.40;;;;;;;6.13;100.00;101159.16;5116319;28;20030;-58
2023/12/30 09:14:52;;;;;;;0.30;0.30;;;;;;;6.17;100.00;101166.22;5116201;28;20027;-58
2023/12/30 09:17:17;;;;;;;0.30;0.30;;;;;;;6.19;100.00;101167.19;5115490;28;20482;-58
2023/12/30 09:19:43;;;;;;;0.30;0.30;;;;;;;6.24;100.00;101172.56;5115719;28;20058;-58
2023/12/30 09:22:10;;;;;;;0.30;0.30;;;;;;;6.25;100.00;101177.75;5115880;28;20034;-57
2023/12/30 09:24:36;;;;;;;0.30;0.30;;;;;;;6.28;100.00;101179.59;5115724;28;20039;-58
2023/12/30 09:27:02;;;;;;;0.30;0.30;;;;;;;6.32;100.00;101176.38;5116258;28;20019;-58
2023/12/30 09:29:27;;;;;;;0.28;0.28;;;;;;;6.33;100.00;101179.84;5115507;28;20089;-58
2023/12/30 09:31:52;;;;;;;0.40;0.40;;;;;;;6.36;100.00;101177.41;5115648;28;20031;-58
2023/12/30 09:34:18;;;;;;;0.30;0.30;;;;;;;6.38;100.00;101179.25;5115551;28;20019;-58
2023/12/30 09:36:43;;;;;;;0.30;0.30;;;;;;;6.42;100.00;101180.31;5115718;28;20047;-58
2023/12/30 09:39:11;;;;;;;0.30;0.30;;;;;;;6.46;100.00;101189.91;5115669;28;20051;-58
2023/12/30 09:41:39;;;;;;;0.30;0.30;;;;;;;6.49;100.00;101190.03;5115738;28;20360;-58
2023/12/30 09:44:06;;;;;;;0.30;0.30;;;;;;;6.53;100.00;101192.00;5115660;28;20093;-58
2023/12/30 09:46:31;;;;;;;0.30;0.30;;;;;;;6.57;100.00;101188.78;5114849;28;20039;-58
2023/12/30 09:48:58;;;;;;;0.30;0.30;;;;;;;6.59;100.00;101192.28;5115368;28;20507;-58
2023/12/30 09:51:26;;;;;;;0.30;0.30;;;;;;;6.63;100.00;101197.56;5115064;28;20141;-58
2023/12/30 09:53:51;;;;;;;0.30;0.30;;;;;;;6.66;100.00;101198.63;5115335;28;20081;-58
2023/12/30 09:56:18;;;;;;;0.30;0.30;;;;;;;6.68;100.00;101196.13;5115296;28;20130;-58
2023/12/30 09:58:44;;;;;;;0.30;0.30;;;;;;;6.70;100.00;101190.28;5114813;28;20026;-58
2023/12/30 10:01:10;;;;;;;0.20;0.20;;;;;;;6.72;100.00;101187.78;5115020;28;20110;-58
2023/12/30 10:03:35;;;;;;;0.30;0.30;;;;;;;6.74;100.00;101189.63;5115424;28;20023;-58
2023/12/30 10:06:04;;;;;;;0.20;0.20;;;;;;;6.76;100.00;101189.69;5113386;28;20028;-58
2023/12/30 10:08:30;;;;;;;0.20;0.20;;;;;;;6.80;100.00;101189.03;5109015;28;20027;-58
2023/12/30 10:10:55;;;;;;;0.30;0.30;;;;;;;6.84;100.00;101192.66;5102572;28;20020;-58
2023/12/30 10:13:26;;;;;;;0.30;0.30;;;;;;;6.86;100.00;101188.50;5101602;28;20017;-58
2023/12/30 10:15:53;;;;;;;0.20;0.20;;;;;;;6.90;100.00;101193.84;5103253;28;20475;-58
2023/12/30 10:18:19;;;;;;;0.30;0.30;;;;;;;6.92;100.00;101187.13;5099421;28;20066;-58
2023/12/30 10:20:46;;;;;;;0.30;0.30;;;;;;;6.95;100.00;101196.63;5101460;28;20024;-58
2023/12/30 10:23:12;;;;;;;0.30;0.30;;;;;;;6.99;100.00;101197.69;5100244;28;20039;-59
2023/12/30 10:25:38;;;;;;;0.20;0.20;;;;;;;7.02;100.00;101197.81;5102482;28;20055;-58
2023/12/30 10:28:04;;;;;;;0.30;0.30;;;;;;;7.07;100.00;101193.78;5100951;28;20066;-59
2023/12/30 10:30:30;;;;;;;0.30;0.30;;;;;;;7.13;100.00;101186.41;5100579;28;20031;-59
2023/12/30 10:33:09;;;;;;;0.20;0.20;;;;;;;7.18;100.00;101205.47;5099583;28;20043;-58
2023/12/30 10:35:34;;;;;;;0.40;0.40;;;;;;;7.24;100.00;101200.66;5099762;28;20066;-58
2023/12/30 10:38:03;;;;;;;0.20;0.20;;;;;;;7.26;100.00;101203.28;5101894;28;20016;-59
2023/12/30 10:40:29;;;;;;;0.30;0.30;;;;;;;7.32;100.00;101208.72;5101820;28;20110;-59
2023/12/30 10:42:54;;;;;;;0.30;0.30;;;;;;;7.37;100.00;101208.91;5099290;28;20432;-58
2023/12/30 10:45:19;;;;;;;0.30;0.30;;;;;;;7.39;100.00;101200.50;5099319;28;20020;-59
2023/12/30 10:47:48;;;;;;;0.30;0.30;;;;;;;7.44;100.00;101207.53;5100642;28;20417;-58
2023/12/30 10:50:14;;;;;;;0.30;0.30;;;;;;;7.44;100.00;101199.81;5100014;28;20024;-58
2023/12/30 10:52:48;;;;;;;0.40;0.40;;;;;;;7.45;100.00;101205.06;5101532;28;20034;-58
2023/12/30 10:55:15;;;;;;;0.30;0.30;;;;;;;7.53;100.00;101190.91;5100797;28;20039;-59
2023/12/30 10:57:49;;;;;;;0.30;0.30;;;;;;;7.61;100.00;101195.53;5100948;28;20031;-58
2023/12/30 11:00:20;;;;;;;0.30;0.30;;;;;;;7.68;100.00;101195.88;5099379;28;20027;-58
2023/12/30 11:02:47;;;;;;;0.30;0.30;;;;;;;7.71;100.00;101183.19;5100307;28;20019;-58
2023/12/30 11:05:23;;;;;;;0.30;0.30;;;;;;;7.85;100.00;101181.25;5099191;28;20039;-59
2023/12/30 11:07:49;;;;;;;0.30;0.30;;;;;;;7.82;100.00;101181.09;5101608;28;20027;-59
2023/12/30 11:10:21;;;;;;;0.30;0.30;;;;;;;7.83;100.00;101172.59;5098784;28;20047;-58
2023/12/30 11:12:46;;;;;;;0.30;0.30;;;;;;;7.84;100.00;101174.38;5100014;28;20519;-58
2023/12/30 11:15:24;;;;;;;0.20;0.20;;;;;;;7.86;100.00;101177.91;5107503;28;20126;-58
2023/12/30 11:17:50;;;;;;;0.38;0.38;;;;;;;7.83;100.00;101167.47;5112007;28;20036;-58